sensor_id;sensor_type;location;lat;lon;timestamp;pressure;altitude;pressure_sealevel;temperature;humidity
8543;BME280;4309;42.658;23.380;2023-02-25T00:00:29;94141.06;;;7.41;83.54
8543;BME280;4309;42.658;23.380;2023-02-25T00:01:05;94133.88;;;7.37;82.73
8543;BME280;4309;42.658;23.380;2023-02-25T00:01:37;94144.50;;;7.35;83.18
8543;BME280;4309;42.658;23.380;2023-02-25T00:02:10;94150.09;;;7.39;83.04
8543;BME280;4309;42.658;23.380;2023-02-25T00:02:42;94146.47;;;7.40;82.74
8543;BME280;4309;42.658;23.380;2023-02-25T00:03:16;94149.06;;;7.40;83.42
8543;BME280;4309;42.658;23.380;2023-02-25T00:03:50;94150.88;;;7.39;83.03
8543;BME280;4309;42.658;23.380;2023-02-25T00:04:26;94145.09;;;7.37;82.38
8543;BME280;4309;42.658;23.380;2023-02-25T00:05:00;94145.53;;;7.34;82.88
8543;BME280;4309;42.658;23.380;2023-02-25T00:05:37;94149.16;;;7.33;83.77
8543;BME280;4309;42.658;23.380;2023-02-25T00:06:11;94156.50;;;7.36;84.44
8543;BME280;4309;42.658;23.380;2023-02-25T00:06:43;94151.25;;;7.43;83.57
8543;BME280;4309;42.658;23.380;2023-02-25T00:07:18;94146.47;;;7.40;82.94
8543;BME280;4309;42.658;23.380;2023-02-25T00:07:50;94149.44;;;7.43;83.05
8543;BME280;4309;42.658;23.380;2023-02-25T00:08:22;94143.03;;;7.46;82.76
8543;BME280;4309;42.658;23.380;2023-02-25T00:08:57;94142.44;;;7.44;82.95
8543;BME280;4309;42.658;23.380;2023-02-25T00:09:29;94144.63;;;7.47;82.92
8543;BME280;4309;42.658;23.380;2023-02-25T00:10:02;94142.59;;;7.49;82.22
8543;BME280;4309;42.658;23.380;2023-02-25T00:10:35;94141.78;;;7.48;82.32
8543;BME280;4309;42.658;23.380;2023-02-25T00:11:07;94147.38;;;7.52;81.90
8543;BME280;4309;42.658;23.380;2023-02-25T00:11:38;94144.94;;;7.57;82.01
8543;BME280;4309;42.658;23.380;2023-02-25T00:12:11;94146.34;;;7.53;82.52
8543;BME280;4309;42.658;23.380;2023-02-25T00:12:42;94151.19;;;7.49;82.01
8543;BME280;4309;42.658;23.380;2023-02-25T00:13:14;94135.28;;;7.39;82.19
8543;BME280;4309;42.658;23.380;2023-02-25T00:13:47;94145.41;;;7.47;82.66
8543;BME280;4309;42.658;23.380;2023-02-25T00:14:19;94145.47;;;7.41;82.31
8543;BME280;4309;42.658;23.380;2023-02-25T00:14:51;94140.28;;;7.41;83.10
8543;BME280;4309;42.658;23.380;2023-02-25T00:15:24;94146.06;;;7.43;83.25
8543;BME280;4309;42.658;23.380;2023-02-25T00:15:56;94139.84;;;7.44;82.66
8543;BME280;4309;42.658;23.380;2023-02-25T00:16:29;94145.25;;;7.42;82.57
8543;BME280;4309;42.658;23.380;2023-02-25T00:17:01;94155.81;;;7.47;82.47
8543;BME280;4309;42.658;23.380;2023-02-25T00:17:34;94156.31;;;7.56;82.17
8543;BME280;4309;42.658;23.380;2023-02-25T00:18:06;94150.56;;;7.54;81.34
8543;BME280;4309;42.658;23.380;2023-02-25T00:18:38;94150.13;;;7.57;81.12
8543;BME280;4309;42.658;23.380;2023-02-25T00:19:14;94147.16;;;7.53;81.83
8543;BME280;4309;42.658;23.380;2023-02-25T00:19:46;94141.16;;;7.53;82.32
8543;BME280;4309;42.658;23.380;2023-02-25T00:20:18;94138.94;;;7.56;82.03
8543;BME280;4309;42.658;23.380;2023-02-25T00:20:53;94136.97;;;7.52;81.41
8543;BME280;4309;42.658;23.380;2023-02-25T00:21:25;94137.56;;;7.54;81.91
8543;BME280;4309;42.658;23.380;2023-02-25T00:22:00;94136.97;;;7.52;81.90
8543;BME280;4309;42.658;23.380;2023-02-25T00:22:34;94138.34;;;7.54;81.75
8543;BME280;4309;42.658;23.380;2023-02-25T00:23:06;94145.28;;;7.60;81.39
8543;BME280;4309;42.658;23.380;2023-02-25T00:23:38;94146.72;;;7.56;81.46
8543;BME280;4309;42.658;23.380;2023-02-25T00:24:10;94150.91;;;7.57;82.18
8543;BME280;4309;42.658;23.380;2023-02-25T00:24:43;94152.78;;;7.50;81.16
8543;BME280;4309;42.658;23.380;2023-02-25T00:25:15;94148.31;;;7.57;81.31
8543;BME280;4309;42.658;23.380;2023-02-25T00:25:47;94145.53;;;7.52;81.89
8543;BME280;4309;42.658;23.380;2023-02-25T00:26:21;94150.75;;;7.52;82.00
8543;BME280;4309;42.658;23.380;2023-02-25T00:26:54;94145.97;;;7.49;81.27
8543;BME280;4309;42.658;23.380;2023-02-25T00:27:27;94139.63;;;7.45;82.16
8543;BME280;4309;42.658;23.380;2023-02-25T00:27:59;94136.44;;;7.43;82.27
8543;BME280;4309;42.658;23.380;2023-02-25T00:28:31;94135.94;;;7.35;82.41
8543;BME280;4309;42.658;23.380;2023-02-25T00:29:05;94131.06;;;7.38;82.30
8543;BME280;4309;42.658;23.380;2023-02-25T00:29:36;94142.06;;;7.40;82.91
8543;BME280;4309;42.658;23.380;2023-02-25T00:30:10;94139.19;;;7.48;82.17
8543;BME280;4309;42.658;23.380;2023-02-25T00:30:43;94135.94;;;7.53;81.98
8543;BME280;4309;42.658;23.380;2023-02-25T00:31:15;94134.59;;;7.50;82.05
8543;BME280;4309;42.658;23.380;2023-02-25T00:31:47;94136.75;;;7.53;82.46
8543;BME280;4309;42.658;23.380;2023-02-25T00:32:21;94129.31;;;7.57;81.91
8543;BME280;4309;42.658;23.380;2023-02-25T00:32:53;94134.09;;;7.60;81.59
8543;BME280;4309;42.658;23.380;2023-02-25T00:33:25;94132.69;;;7.57;81.51
8543;BME280;4309;42.658;23.380;2023-02-25T00:33:57;94135.09;;;7.59;81.13
8543;BME280;4309;42.658;23.380;2023-02-25T00:34:30;94138.44;;;7.66;81.08
8543;BME280;4309;42.658;23.380;2023-02-25T00:35:02;94140.81;;;7.67;80.72
8543;BME280;4309;42.658;23.380;2023-02-25T00:35:37;94134.97;;;7.72;81.11
8543;BME280;4309;42.658;23.380;2023-02-25T00:36:11;94130.56;;;7.72;80.55
8543;BME280;4309;42.658;23.380;2023-02-25T00:36:45;94131.66;;;7.65;80.83
8543;BME280;4309;42.658;23.380;2023-02-25T00:37:17;94125.84;;;7.63;80.74
8543;BME280;4309;42.658;23.380;2023-02-25T00:37:51;94126.50;;;7.58;80.67
8543;BME280;4309;42.658;23.380;2023-02-25T00:38:24;94119.47;;;7.59;81.06
8543;BME280;4309;42.658;23.380;2023-02-25T00:38:56;94127.66;;;7.62;80.52
8543;BME280;4309;42.658;23.380;2023-02-25T00:39:27;94122.72;;;7.54;81.19
8543;BME280;4309;42.658;23.380;2023-02-25T00:40:12;94130.84;;;7.64;80.52
8543;BME280;4309;42.658;23.380;2023-02-25T00:40:45;94127.44;;;7.64;80.19
8543;BME280;4309;42.658;23.380;2023-02-25T00:41:20;94126.72;;;7.57;80.01
8543;BME280;4309;42.658;23.380;2023-02-25T00:41:53;94123.69;;;7.60;80.65
8543;BME280;4309;42.658;23.380;2023-02-25T00:42:25;94122.06;;;7.59;80.70
8543;BME280;4309;42.658;23.380;2023-02-25T00:42:57;94117.91;;;7.58;81.03
8543;BME280;4309;42.658;23.380;2023-02-25T00:43:29;94118.28;;;7.61;80.96
8543;BME280;4309;42.658;23.380;2023-02-25T00:44:02;94122.81;;;7.66;81.47
8543;BME280;4309;42.658;23.380;2023-02-25T00:44:34;94120.59;;;7.69;80.62
8543;BME280;4309;42.658;23.380;2023-02-25T00:45:08;94120.66;;;7.63;81.11
8543;BME280;4309;42.658;23.380;2023-02-25T00:45:40;94120.50;;;7.58;81.02
8543;BME280;4309;42.658;23.380;2023-02-25T00:46:15;94120.94;;;7.55;80.86
8543;BME280;4309;42.658;23.380;2023-02-25T00:46:47;94127.94;;;7.54;81.34
8543;BME280;4309;42.658;23.380;2023-02-25T00:47:19;94121.75;;;7.55;80.30
8543;BME280;4309;42.658;23.380;2023-02-25T00:47:52;94122.50;;;7.56;80.59
8543;BME280;4309;42.658;23.380;2023-02-25T00:48:24;94120.78;;;7.50;81.00
8543;BME280;4309;42.658;23.380;2023-02-25T00:48:57;94118.16;;;7.50;81.01
8543;BME280;4309;42.658;23.380;2023-02-25T00:49:29;94110.81;;;7.47;81.84
8543;BME280;4309;42.658;23.380;2023-02-25T00:50:01;94108.03;;;7.42;81.57
8543;BME280;4309;42.658;23.380;2023-02-25T00:50:34;94108.03;;;7.42;82.40
8543;BME280;4309;42.658;23.380;2023-02-25T00:51:06;94109.50;;;7.38;81.95
8543;BME280;4309;42.658;23.380;2023-02-25T00:51:39;94114.22;;;7.47;81.84
8543;BME280;4309;42.658;23.380;2023-02-25T00:52:11;94111.94;;;7.51;82.27
8543;BME280;4309;42.658;23.380;2023-02-25T00:52:42;94117.59;;;7.48;80.99
8543;BME280;4309;42.658;23.380;2023-02-25T00:53:18;94115.34;;;7.51;81.53
8543;BME280;4309;42.658;23.380;2023-02-25T00:53:51;94106.97;;;7.49;80.82
8543;BME280;4309;42.658;23.380;2023-02-25T00:54:23;94101.97;;;7.48;81.18
8543;BME280;4309;42.658;23.380;2023-02-25T00:54:55;94103.22;;;7.45;81.25
8543;BME280;4309;42.658;23.380;2023-02-25T00:55:27;94092.88;;;7.39;81.41
8543;BME280;4309;42.658;23.380;2023-02-25T00:56:06;94096.28;;;7.39;81.79
8543;BME280;4309;42.658;23.380;2023-02-25T00:56:38;94104.84;;;7.40;81.55
8543;BME280;4309;42.658;23.380;2023-02-25T00:57:10;94104.22;;;7.44;81.93
8543;BME280;4309;42.658;23.380;2023-02-25T00:57:41;94104.78;;;7.46;82.25
8543;BME280;4309;42.658;23.380;2023-02-25T00:58:17;94097.63;;;7.42;81.78
8543;BME280;4309;42.658;23.380;2023-02-25T00:58:50;94096.88;;;7.41;81.50
8543;BME280;4309;42.658;23.380;2023-02-25T00:59:22;94097.06;;;7.40;81.42
8543;BME280;4309;42.658;23.380;2023-02-25T00:59:55;94101.25;;;7.41;81.13
8543;BME280;4309;42.658;23.380;2023-02-25T01:00:30;94103.47;;;7.37;81.09
8543;BME280;4309;42.658;23.380;2023-02-25T01:01:02;94103.69;;;7.36;81.48
8543;BME280;4309;42.658;23.380;2023-02-25T01:01:34;94100.09;;;7.37;81.86
8543;BME280;4309;42.658;23.380;2023-02-25T01:02:08;94105.72;;;7.34;81.57
8543;BME280;4309;42.658;23.380;2023-02-25T01:02:40;94105.50;;;7.35;81.20
8543;BME280;4309;42.658;23.380;2023-02-25T01:03:12;94103.31;;;7.32;81.24
8543;BME280;4309;42.658;23.380;2023-02-25T01:03:44;94097.78;;;7.29;81.01
8543;BME280;4309;42.658;23.380;2023-02-25T01:04:19;94095.38;;;7.27;81.15
8543;BME280;4309;42.658;23.380;2023-02-25T01:04:51;94098.97;;;7.26;81.34
8543;BME280;4309;42.658;23.380;2023-02-25T01:05:24;94099.19;;;7.25;80.98
8543;BME280;4309;42.658;23.380;2023-02-25T01:05:56;94098.41;;;7.24;82.12
8543;BME280;4309;42.658;23.380;2023-02-25T01:06:30;94097.63;;;7.24;81.45
8543;BME280;4309;42.658;23.380;2023-02-25T01:07:03;94093.84;;;7.20;81.57
8543;BME280;4309;42.658;23.380;2023-02-25T01:07:35;94098.59;;;7.23;81.83
8543;BME280;4309;42.658;23.380;2023-02-25T01:08:08;94095.56;;;7.26;81.35
8543;BME280;4309;42.658;23.380;2023-02-25T01:08:43;94089.59;;;7.25;81.71
8543;BME280;4309;42.658;23.380;2023-02-25T01:09:13;94083.00;;;7.23;81.58
8543;BME280;4309;42.658;23.380;2023-02-25T01:09:49;94086.41;;;7.23;81.86
8543;BME280;4309;42.658;23.380;2023-02-25T01:10:21;94084.63;;;7.24;81.34
8543;BME280;4309;42.658;23.380;2023-02-25T01:10:53;94089.59;;;7.25;82.33
8543;BME280;4309;42.658;23.380;2023-02-25T01:11:28;94079.75;;;7.27;81.98
8543;BME280;4309;42.658;23.380;2023-02-25T01:12:27;94077.16;;;7.27;81.55
8543;BME280;4309;42.658;23.380;2023-02-25T01:13:00;94081.31;;;7.35;81.51
8543;BME280;4309;42.658;23.380;2023-02-25T01:13:32;94083.91;;;7.35;81.96
8543;BME280;4309;42.658;23.380;2023-02-25T01:14:05;94084.69;;;7.35;80.85
8543;BME280;4309;42.658;23.380;2023-02-25T01:14:38;94079.28;;;7.37;81.51
8543;BME280;4309;42.658;23.380;2023-02-25T01:15:11;94074.88;;;7.37;80.98
8543;BME280;4309;42.658;23.380;2023-02-25T01:15:43;94074.44;;;7.40;81.02
8543;BME280;4309;42.658;23.380;2023-02-25T01:16:16;94074.88;;;7.37;80.85
8543;BME280;4309;42.658;23.380;2023-02-25T01:16:51;94071.34;;;7.32;81.24
8543;BME280;4309;42.658;23.380;2023-02-25T01:17:23;94075.22;;;7.23;81.50
8543;BME280;4309;42.658;23.380;2023-02-25T01:17:55;94071.97;;;7.27;81.63
8543;BME280;4309;42.658;23.380;2023-02-25T01:18:28;94080.78;;;7.26;80.83
8543;BME280;4309;42.658;23.380;2023-02-25T01:19:03;94078.63;;;7.23;81.05
8543;BME280;4309;42.658;23.380;2023-02-25T01:19:35;94071.69;;;7.17;81.37
8543;BME280;4309;42.658;23.380;2023-02-25T01:21:44;94067.69;;;7.15;80.29
8543;BME280;4309;42.658;23.380;2023-02-25T01:22:17;94076.50;;;7.14;81.24
8543;BME280;4309;42.658;23.380;2023-02-25T01:22:50;94075.91;;;7.12;80.76
8543;BME280;4309;42.658;23.380;2023-02-25T01:23:22;94071.50;;;7.12;80.66
8543;BME280;4309;42.658;23.380;2023-02-25T01:23:57;94074.91;;;7.13;80.90
8543;BME280;4309;42.658;23.380;2023-02-25T01:24:30;94076.94;;;7.11;82.12
8543;BME280;4309;42.658;23.380;2023-02-25T01:25:03;94066.69;;;7.16;81.27
8543;BME280;4309;42.658;23.380;2023-02-25T01:25:38;94078.03;;;7.21;81.10
8543;BME280;4309;42.658;23.380;2023-02-25T01:26:11;94079.25;;;7.19;80.47
8543;BME280;4309;42.658;23.380;2023-02-25T01:26:44;94080.06;;;7.19;80.06
8543;BME280;4309;42.658;23.380;2023-02-25T01:27:17;94076.06;;;7.17;80.87
8543;BME280;4309;42.658;23.380;2023-02-25T01:27:49;94075.13;;;7.11;80.63
8543;BME280;4309;42.658;23.380;2023-02-25T01:28:24;94070.88;;;7.17;80.59
8543;BME280;4309;42.658;23.380;2023-02-25T01:28:59;94072.28;;;7.19;81.67
8543;BME280;4309;42.658;23.380;2023-02-25T01:29:34;94075.84;;;7.18;80.15
8543;BME280;4309;42.658;23.380;2023-02-25T01:30:08;94072.31;;;7.13;80.88
8543;BME280;4309;42.658;23.380;2023-02-25T01:30:42;94071.09;;;7.15;81.03
8543;BME280;4309;42.658;23.380;2023-02-25T01:31:17;94075.47;;;7.15;80.65
8543;BME280;4309;42.658;23.380;2023-02-25T01:31:50;94075.84;;;7.18;81.12
8543;BME280;4309;42.658;23.380;2023-02-25T01:32:23;94066.47;;;7.17;80.32
8543;BME280;4309;42.658;23.380;2023-02-25T01:32:55;94073.91;;;7.14;80.70
8543;BME280;4309;42.658;23.380;2023-02-25T01:33:27;94071.91;;;7.16;81.29
8543;BME280;4309;42.658;23.380;2023-02-25T01:34:03;94074.53;;;7.09;81.45
8543;BME280;4309;42.658;23.380;2023-02-25T01:34:35;94065.38;;;7.07;81.12
8543;BME280;4309;42.658;23.380;2023-02-25T01:35:07;94064.94;;;7.10;81.44
8543;BME280;4309;42.658;23.380;2023-02-25T01:35:40;94059.38;;;7.06;82.03
8543;BME280;4309;42.658;23.380;2023-02-25T01:36:12;94062.41;;;7.03;81.73
8543;BME280;4309;42.658;23.380;2023-02-25T01:36:50;94063.47;;;6.96;81.52
8543;BME280;4309;42.658;23.380;2023-02-25T01:37:21;94072.63;;;6.98;80.97
8543;BME280;4309;42.658;23.380;2023-02-25T01:37:53;94062.84;;;7.00;82.41
8543;BME280;4309;42.658;23.380;2023-02-25T01:38:26;94056.44;;;6.96;80.89
8543;BME280;4309;42.658;23.380;2023-02-25T01:38:59;94051.47;;;6.95;82.11
8543;BME280;4309;42.658;23.380;2023-02-25T01:39:31;94051.09;;;6.91;81.71
8543;BME280;4309;42.658;23.380;2023-02-25T01:40:05;94049.88;;;6.94;82.02
8543;BME280;4309;42.658;23.380;2023-02-25T01:40:37;94053.28;;;6.94;82.46
8543;BME280;4309;42.658;23.380;2023-02-25T01:41:09;94059.47;;;6.93;82.34
8543;BME280;4309;42.658;23.380;2023-02-25T01:41:41;94061.66;;;6.96;82.04
8543;BME280;4309;42.658;23.380;2023-02-25T01:42:17;94058.84;;;6.98;81.57
8543;BME280;4309;42.658;23.380;2023-02-25T01:42:49;94063.09;;;6.92;81.92
8543;BME280;4309;42.658;23.380;2023-02-25T01:43:21;94067.09;;;6.88;82.30
8543;BME280;4309;42.658;23.380;2023-02-25T01:44:05;94073.69;;;6.91;82.66
8543;BME280;4309;42.658;23.380;2023-02-25T01:44:38;94071.88;;;6.91;82.84
8543;BME280;4309;42.658;23.380;2023-02-25T01:45:31;94075.28;;;6.92;82.41
8543;BME280;4309;42.658;23.380;2023-02-25T01:46:03;94077.66;;;6.93;82.04
8543;BME280;4309;42.658;23.380;2023-02-25T01:46:36;94074.84;;;6.95;82.29
8543;BME280;4309;42.658;23.380;2023-02-25T01:47:19;94075.44;;;6.97;82.54
8543;BME280;4309;42.658;23.380;2023-02-25T01:47:55;94070.91;;;6.92;82.32
8543;BME280;4309;42.658;23.380;2023-02-25T01:48:30;94065.66;;;6.99;82.52
8543;BME280;4309;42.658;23.380;2023-02-25T01:49:07;94072.81;;;7.03;81.43
8543;BME280;4309;42.658;23.380;2023-02-25T01:49:43;94069.44;;;6.96;82.66
8543;BME280;4309;42.658;23.380;2023-02-25T01:50:16;94066.84;;;6.96;83.10
8543;BME280;4309;42.658;23.380;2023-02-25T01:50:50;94068.25;;;6.99;82.52
8543;BME280;4309;42.658;23.380;2023-02-25T01:51:30;94067.00;;;7.01;81.42
8543;BME280;4309;42.658;23.380;2023-02-25T01:52:08;94072.22;;;7.01;82.10
8543;BME280;4309;42.658;23.380;2023-02-25T01:52:40;94071.56;;;7.06;82.33
8543;BME280;4309;42.658;23.380;2023-02-25T01:53:19;94075.41;;;7.03;82.07
8543;BME280;4309;42.658;23.380;2023-02-25T01:53:54;94073.94;;;7.07;81.76
8543;BME280;4309;42.658;23.380;2023-02-25T01:54:27;94075.19;;;7.05;82.59
8543;BME280;4309;42.658;23.380;2023-02-25T01:55:02;94076.03;;;6.99;82.38
8543;BME280;4309;42.658;23.380;2023-02-25T01:55:35;94073.28;;;6.94;81.69
8543;BME280;4309;42.658;23.380;2023-02-25T01:56:09;94071.88;;;6.91;82.20
8543;BME280;4309;42.658;23.380;2023-02-25T01:56:49;94073.66;;;6.97;82.78
8543;BME280;4309;42.658;23.380;2023-02-25T01:57:23;94076.38;;;7.02;82.08
8543;BME280;4309;42.658;23.380;2023-02-25T01:57:57;94074.38;;;7.04;82.05
8543;BME280;4309;42.658;23.380;2023-02-25T01:58:32;94067.44;;;6.98;82.10
8543;BME280;4309;42.658;23.380;2023-02-25T01:59:05;94064.03;;;6.98;81.63
8543;BME280;4309;42.658;23.380;2023-02-25T01:59:38;94060.44;;;6.99;82.48
8543;BME280;4309;42.658;23.380;2023-02-25T02:00:12;94061.66;;;6.96;82.98
8543;BME280;4309;42.658;23.380;2023-02-25T02:00:47;94056.66;;;6.95;83.05
8543;BME280;4309;42.658;23.380;2023-02-25T02:01:21;94055.88;;;6.94;82.60
8543;BME280;4309;42.658;23.380;2023-02-25T02:01:56;94059.25;;;6.95;83.23
8543;BME280;4309;42.658;23.380;2023-02-25T02:02:28;94058.84;;;6.98;83.07
8543;BME280;4309;42.658;23.380;2023-02-25T02:03:04;94057.38;;;7.08;82.75
8543;BME280;4309;42.658;23.380;2023-02-25T02:03:37;94068.31;;;7.10;82.50
8543;BME280;4309;42.658;23.380;2023-02-25T02:04:11;94062.56;;;7.08;82.71
8543;BME280;4309;42.658;23.380;2023-02-25T02:04:43;94062.13;;;7.11;82.42
8543;BME280;4309;42.658;23.380;2023-02-25T02:05:22;94062.91;;;7.12;82.26
8543;BME280;4309;42.658;23.380;2023-02-25T02:06:01;94063.94;;;7.11;81.71
8543;BME280;4309;42.658;23.380;2023-02-25T02:06:36;94061.38;;;7.04;81.90
8543;BME280;4309;42.658;23.380;2023-02-25T02:07:11;94068.28;;;6.92;82.63
8543;BME280;4309;42.658;23.380;2023-02-25T02:07:46;94063.25;;;6.97;81.91
8543;BME280;4309;42.658;23.380;2023-02-25T02:08:19;94067.28;;;6.93;82.09
8543;BME280;4309;42.658;23.380;2023-02-25T02:08:52;94064.63;;;6.75;83.35
8543;BME280;4309;42.658;23.380;2023-02-25T02:09:26;94063.81;;;6.75;83.10
8543;BME280;4309;42.658;23.380;2023-02-25T02:09:59;94056.00;;;6.81;83.53
8543;BME280;4309;42.658;23.380;2023-02-25T02:10:32;94063.16;;;6.86;83.22
8543;BME280;4309;42.658;23.380;2023-02-25T02:11:04;94064.88;;;6.92;83.00
8543;BME280;4309;42.658;23.380;2023-02-25T02:11:37;94063.88;;;6.93;83.38
8543;BME280;4309;42.658;23.380;2023-02-25T02:12:09;94062.28;;;6.92;82.60
8543;BME280;4309;42.658;23.380;2023-02-25T02:12:43;94064.69;;;6.93;82.83
8543;BME280;4309;42.658;23.380;2023-02-25T02:13:18;94066.47;;;6.93;82.80
8543;BME280;4309;42.658;23.380;2023-02-25T02:13:53;94060.72;;;6.91;83.36
8543;BME280;4309;42.658;23.380;2023-02-25T02:14:29;94064.69;;;6.93;83.47
8543;BME280;4309;42.658;23.380;2023-02-25T02:15:06;94064.03;;;6.98;83.13
8543;BME280;4309;42.658;23.380;2023-02-25T02:15:43;94051.78;;;7.05;81.93
8543;BME280;4309;42.658;23.380;2023-02-25T02:16:43;94050.00;;;7.05;82.80
8543;BME280;4309;42.658;23.380;2023-02-25T02:17:23;94050.78;;;7.06;82.65
8543;BME280;4309;42.658;23.380;2023-02-25T02:17:58;94049.91;;;7.12;82.69
8543;BME280;4309;42.658;23.380;2023-02-25T02:18:34;94050.66;;;7.19;82.73
8543;BME280;4309;42.658;23.380;2023-02-25T02:19:20;94051.59;;;7.24;81.96
8543;BME280;4309;42.658;23.380;2023-02-25T02:20:10;94047.94;;;7.32;81.43
8543;BME280;4309;42.658;23.380;2023-02-25T02:21:52;94045.19;;;7.45;81.25
8543;BME280;4309;42.658;23.380;2023-02-25T02:22:31;94035.00;;;7.43;80.55
8543;BME280;4309;42.658;23.380;2023-02-25T02:23:32;94038.78;;;7.47;80.38
8543;BME280;4309;42.658;23.380;2023-02-25T02:24:26;94039.78;;;7.46;80.02
8543;BME280;4309;42.658;23.380;2023-02-25T02:25:56;94041.59;;;7.46;80.88
8543;BME280;4309;42.658;23.380;2023-02-25T02:26:48;94048.59;;;7.45;80.08
8543;BME280;4309;42.658;23.380;2023-02-25T02:27:25;94046.22;;;7.44;79.90
8543;BME280;4309;42.658;23.380;2023-02-25T02:29:25;94033.94;;;7.33;80.65
8543;BME280;4309;42.658;23.380;2023-02-25T02:30:37;94032.47;;;7.37;80.22
8543;BME280;4309;42.658;23.380;2023-02-25T02:31:26;94028.00;;;7.44;80.52
8543;BME280;4309;42.658;23.380;2023-02-25T02:32:10;94018.84;;;7.41;80.83
8543;BME280;4309;42.658;23.380;2023-02-25T02:32:49;94024.03;;;7.41;81.33
8543;BME280;4309;42.658;23.380;2023-02-25T02:33:28;94022.81;;;7.44;80.33
8543;BME280;4309;42.658;23.380;2023-02-25T02:34:17;94027.19;;;7.43;81.04
8543;BME280;4309;42.658;23.380;2023-02-25T02:35:01;94025.03;;;7.40;79.77
8543;BME280;4309;42.658;23.380;2023-02-25T02:35:46;94026.44;;;7.43;79.91
8543;BME280;4309;42.658;23.380;2023-02-25T02:36:28;94020.28;;;7.37;80.54
8543;BME280;4309;42.658;23.380;2023-02-25T02:37:17;94023.47;;;7.39;81.03
8543;BME280;4309;42.658;23.380;2023-02-25T02:37:58;94019.25;;;7.38;81.04
8543;BME280;4309;42.658;23.380;2023-02-25T02:38:40;94014.69;;;7.34;80.21
8543;BME280;4309;42.658;23.380;2023-02-25T02:39:22;94017.38;;;7.27;80.42
8543;BME280;4309;42.658;23.380;2023-02-25T02:40:04;94024.13;;;7.35;81.10
8543;BME280;4309;42.658;23.380;2023-02-25T02:40:52;94015.44;;;7.41;80.82
8543;BME280;4309;42.658;23.380;2023-02-25T02:41:33;94020.41;;;7.42;80.72
8543;BME280;4309;42.658;23.380;2023-02-25T02:42:10;94021.00;;;7.44;79.85
8543;BME280;4309;42.658;23.380;2023-02-25T02:43:03;94018.97;;;7.46;79.60
8543;BME280;4309;42.658;23.380;2023-02-25T02:43:41;94018.84;;;7.41;79.38
8543;BME280;4309;42.658;23.380;2023-02-25T02:44:17;94021.84;;;7.38;80.64
8543;BME280;4309;42.658;23.380;2023-02-25T02:44:56;94016.53;;;7.33;79.47
8543;BME280;4309;42.658;23.380;2023-02-25T02:45:38;94028.50;;;7.34;80.48
8543;BME280;4309;42.658;23.380;2023-02-25T02:46:19;94031.91;;;7.35;80.37
8543;BME280;4309;42.658;23.380;2023-02-25T02:46:56;94026.06;;;7.39;80.58
8543;BME280;4309;42.658;23.380;2023-02-25T02:47:33;94020.63;;;7.41;80.59
8543;BME280;4309;42.658;23.380;2023-02-25T02:48:09;94019.84;;;7.40;79.85
8543;BME280;4309;42.658;23.380;2023-02-25T02:48:46;94012.91;;;7.34;79.78
8543;BME280;4309;42.658;23.380;2023-02-25T02:49:25;94013.13;;;7.33;79.74
8543;BME280;4309;42.658;23.380;2023-02-25T02:50:04;94010.69;;;7.38;80.41
8543;BME280;4309;42.658;23.380;2023-02-25T02:50:39;94007.69;;;7.34;80.72
8543;BME280;4309;42.658;23.380;2023-02-25T02:51:17;94010.91;;;7.36;80.43
8543;BME280;4309;42.658;23.380;2023-02-25T02:51:54;93996.94;;;7.31;80.09
8543;BME280;4309;42.658;23.380;2023-02-25T02:52:32;94001.91;;;7.32;80.63
8543;BME280;4309;42.658;23.380;2023-02-25T02:53:09;93993.78;;;7.29;80.22
8543;BME280;4309;42.658;23.380;2023-02-25T02:53:48;93995.00;;;7.26;80.53
8543;BME280;4309;42.658;23.380;2023-02-25T02:54:24;93997.09;;;7.36;80.72
8543;BME280;4309;42.658;23.380;2023-02-25T02:55:01;93999.69;;;7.36;79.98
8543;BME280;4309;42.658;23.380;2023-02-25T02:55:35;93999.91;;;7.34;79.95
8543;BME280;4309;42.658;23.380;2023-02-25T02:56:13;94005.09;;;7.34;79.65
8543;BME280;4309;42.658;23.380;2023-02-25T02:56:51;93996.16;;;7.30;79.66
8543;BME280;4309;42.658;23.380;2023-02-25T02:57:27;93996.16;;;7.30;79.76
8543;BME280;4309;42.658;23.380;2023-02-25T02:58:04;93989.78;;;7.26;80.01
8543;BME280;4309;42.658;23.380;2023-02-25T02:58:42;93989.34;;;7.29;80.25
8543;BME280;4309;42.658;23.380;2023-02-25T02:59:19;93984.97;;;7.30;80.41
8543;BME280;4309;42.658;23.380;2023-02-25T02:59:58;93993.56;;;7.30;79.83
8543;BME280;4309;42.658;23.380;2023-02-25T03:00:35;93990.00;;;7.25;80.79
8543;BME280;4309;42.658;23.380;2023-02-25T03:01:12;93991.94;;;7.29;80.83
8543;BME280;4309;42.658;23.380;2023-02-25T03:01:47;94003.97;;;7.30;80.04
8543;BME280;4309;42.658;23.380;2023-02-25T03:02:27;94001.97;;;7.26;79.94
8543;BME280;4309;42.658;23.380;2023-02-25T03:03:05;94007.34;;;7.31;80.26
8543;BME280;4309;42.658;23.380;2023-02-25T03:03:42;94003.75;;;7.32;79.68
8543;BME280;4309;42.658;23.380;2023-02-25T03:04:20;93999.31;;;7.32;80.24
8543;BME280;4309;42.658;23.380;2023-02-25T03:04:59;93995.19;;;7.25;80.60
8543;BME280;4309;42.658;23.380;2023-02-25T03:05:34;93975.72;;;7.16;80.84
8543;BME280;4309;42.658;23.380;2023-02-25T03:06:12;93980.91;;;7.16;80.67
8543;BME280;4309;42.658;23.380;2023-02-25T03:06:49;93973.75;;;7.11;80.79
8543;BME280;4309;42.658;23.380;2023-02-25T03:07:23;93986.59;;;7.06;80.64
8543;BME280;4309;42.658;23.380;2023-02-25T03:08:01;93983.94;;;7.13;80.71
8543;BME280;4309;42.658;23.380;2023-02-25T03:08:41;93984.81;;;7.07;80.90
8543;BME280;4309;42.658;23.380;2023-02-25T03:09:18;93988.63;;;7.04;80.89
8543;BME280;4309;42.658;23.380;2023-02-25T03:09:53;93984.44;;;7.03;81.42
8543;BME280;4309;42.658;23.380;2023-02-25T03:10:27;93994.84;;;7.03;80.77
8543;BME280;4309;42.658;23.380;2023-02-25T03:11:00;93990.28;;;6.99;81.29
8543;BME280;4309;42.658;23.380;2023-02-25T03:11:32;93996.47;;;6.98;80.75
8543;BME280;4309;42.658;23.380;2023-02-25T03:12:05;93988.47;;;6.99;81.17
8543;BME280;4309;42.658;23.380;2023-02-25T03:12:38;93992.28;;;6.97;81.31
8543;BME280;4309;42.658;23.380;2023-02-25T03:13:10;93993.53;;;6.94;81.51
8543;BME280;4309;42.658;23.380;2023-02-25T03:13:42;93996.47;;;6.98;81.74
8543;BME280;4309;42.658;23.380;2023-02-25T03:14:18;93998.72;;;6.94;81.07
8543;BME280;4309;42.658;23.380;2023-02-25T03:14:49;94007.28;;;6.95;81.58
8543;BME280;4309;42.658;23.380;2023-02-25T03:15:21;94011.41;;;7.02;81.54
8543;BME280;4309;42.658;23.380;2023-02-25T03:15:54;94006.84;;;6.98;80.76
8543;BME280;4309;42.658;23.380;2023-02-25T03:16:34;94004.84;;;7.00;81.97
8543;BME280;4309;42.658;23.380;2023-02-25T03:17:09;93992.66;;;7.00;81.02